Kezdőlap
METAR-TAF:

METAR-TAF

Repülőterek :

Nancy, Franciaország

földrajzi szélesség: 48-35N, földrajzi hosszúság: 005-58E, magasság: 336 m

Jelenlegi meteorológiai megfigyelések

A jelentés 26 perccel ezelõtt készült, 18:30 UTC
Északkeleti szél 5 kt
Hőmérséklet 8°C
Páratartalom 31%
Légköri nyomás 1016 hPa
Látótávolság 10 km, vagy több
felhőtlen 1500 m magasságban, és nincs gomolyfelhõ

METAR: LFSO 011830Z AUTO 04005KT CAVOK 08/M08 Q1016

Idő: 20:56 (18:56 UTC)

Előrejelzés

A jelentés 4 órával és 56 perccel ezelõtt készült, 14:00 UTC
Az előrejelzés 01-én 15 óra UTC és 02-én 15 óra UTC között érvényes
Északkeleti szél 8 kt
Látótávolság 10 km, vagy több
felhőtlen 1500 m magasságban, és nincs gomolyfelhõ
02-én 13 óra UTC és 02-én 15 óra UTC között fokozatosan kialakuló
Nyugat-északnyugati szél 10 kt

TAF: LFSO 011400Z 0115/0215 04008KT CAVOK BECMG 0213/0215 29010KT

Meteorológiai megfigyelések és előrejelzések több, mint 4000 repülőtéren (METAR és TAF jelentéseket).

A térképen piros és sárga pontok jelzik az elérhető meteorológiai állomásokat.

Mozgassa az egeret a pont fölött, hogy megjelenjen az állomás neve.

Azután kattintson az időjárási megfigyelések és előrejelzések megtekintéséhez.

A térkép megváltoztatása: kattintson a fekete keresztel jelölt zöld gombra ráközelítéshez, a vonallal jelölt zöld gombra távolításhoz, vagy a zöld nyilakra a szomszédos térképek eléréséhez.


METAR-TAF: